createdAt,value
2018-12-29T00:03:05.490Z,5.70
2018-12-29T00:08:01.450Z,5.70
2018-12-29T00:12:58.572Z,5.70
2018-12-29T00:17:54.571Z,5.70
2018-12-29T00:22:51.381Z,5.60
2018-12-29T00:27:47.392Z,5.60
2018-12-29T00:32:44.207Z,5.50
2018-12-29T00:37:39.828Z,5.40
2018-12-29T00:42:35.792Z,5.20
2018-12-29T00:47:31.920Z,5.10
2018-12-29T00:52:27.854Z,5.10
2018-12-29T00:57:24.251Z,5.10
2018-12-29T01:02:20.484Z,5.10
2018-12-29T01:07:18.610Z,5.00
2018-12-29T01:12:15.225Z,4.90
2018-12-29T01:17:11.333Z,4.90
2018-12-29T01:22:07.038Z,4.90
2018-12-29T01:27:03.527Z,4.90
2018-12-29T01:32:00.004Z,5.00
2018-12-29T01:36:55.720Z,5.00
2018-12-29T01:41:51.600Z,5.00
2018-12-29T01:46:48.126Z,4.90
2018-12-29T01:51:44.160Z,4.80
2018-12-29T01:56:40.034Z,4.90
2018-12-29T02:01:35.937Z,4.90
2018-12-29T02:06:31.793Z,4.80
2018-12-29T02:11:27.570Z,4.80
2018-12-29T02:16:23.616Z,4.80
2018-12-29T02:21:20.183Z,4.90
2018-12-29T02:26:16.433Z,4.80
2018-12-29T02:31:12.696Z,4.80
2018-12-29T02:36:08.542Z,4.80
2018-12-29T02:41:04.147Z,5.00
2018-12-29T02:45:59.946Z,5.00
2018-12-29T02:50:55.568Z,5.10
2018-12-29T02:55:51.375Z,5.10
2018-12-29T03:00:47.198Z,5.10
2018-12-29T03:05:42.932Z,5.20
2018-12-29T03:10:38.708Z,5.20
2018-12-29T03:15:41.174Z,5.20
2018-12-29T03:20:31.769Z,5.20
2018-12-29T03:25:27.556Z,5.30
2018-12-29T03:30:23.324Z,5.20
2018-12-29T03:35:18.994Z,5.20
2018-12-29T03:40:14.768Z,5.20
2018-12-29T03:45:10.642Z,5.20
2018-12-29T03:50:06.659Z,5.30
2018-12-29T03:55:02.406Z,5.30
2018-12-29T03:59:58.081Z,5.30
2018-12-29T04:04:53.828Z,5.30
2018-12-29T04:09:49.476Z,5.30
2018-12-29T04:14:46.038Z,5.30
2018-12-29T04:19:41.621Z,5.20
2018-12-29T04:24:37.105Z,5.20
2018-12-29T04:29:32.603Z,5.20
2018-12-29T04:34:28.089Z,5.20
2018-12-29T04:39:23.552Z,5.30
2018-12-29T04:44:19.029Z,5.30
2018-12-29T04:49:14.518Z,5.30
2018-12-29T04:54:10.001Z,5.30
2018-12-29T04:59:05.499Z,5.20
2018-12-29T05:04:01.041Z,5.20
2018-12-29T05:08:56.742Z,5.20
2018-12-29T05:13:52.234Z,5.20
2018-12-29T05:18:47.768Z,5.20
2018-12-29T05:23:43.289Z,5.20
2018-12-29T05:28:39.110Z,5.10
2018-12-29T05:33:34.616Z,5.10
2018-12-29T05:38:30.107Z,5.10
2018-12-29T05:43:25.569Z,4.90
2018-12-29T05:48:21.071Z,4.70
2018-12-29T05:53:16.990Z,4.50
2018-12-29T05:58:12.519Z,4.50
2018-12-29T06:03:08.023Z,4.50
2018-12-29T06:08:03.513Z,4.60
2018-12-29T06:12:58.966Z,4.60
2018-12-29T06:17:54.448Z,4.70
2018-12-29T06:22:49.937Z,4.90
2018-12-29T06:27:45.428Z,5.00
2018-12-29T06:32:40.933Z,5.10
2018-12-29T06:37:36.406Z,5.20
2018-12-29T06:42:31.930Z,5.20
2018-12-29T06:47:27.409Z,5.20
2018-12-29T06:52:23.042Z,5.20
2018-12-29T06:57:18.559Z,5.30
2018-12-29T07:02:14.089Z,5.30
2018-12-29T07:07:09.584Z,5.40
2018-12-29T07:12:05.063Z,5.40
2018-12-29T07:17:00.558Z,5.40
2018-12-29T07:21:56.034Z,5.50
2018-12-29T07:26:51.541Z,5.50
2018-12-29T07:31:47.102Z,5.50
2018-12-29T07:36:42.780Z,5.50
2018-12-29T07:41:38.628Z,5.40
2018-12-29T07:46:34.268Z,5.40
2018-12-29T07:51:29.726Z,5.30
2018-12-29T07:56:25.195Z,5.40
2018-12-29T08:01:20.692Z,5.50
2018-12-29T08:06:16.204Z,5.40
2018-12-29T08:11:11.722Z,5.40
2018-12-29T08:16:07.180Z,5.40
2018-12-29T08:21:03.390Z,5.50
2018-12-29T08:25:59.387Z,5.70
2018-12-29T08:30:55.098Z,5.80
2018-12-29T08:35:50.957Z,5.90
2018-12-29T08:40:46.474Z,5.90
2018-12-29T08:45:42.004Z,6.00
2018-12-29T08:50:37.609Z,6.10
2018-12-29T08:55:33.137Z,6.30
2018-12-29T09:00:28.639Z,6.30
2018-12-29T09:05:24.155Z,6.40
2018-12-29T09:10:19.651Z,6.40
2018-12-29T09:15:15.155Z,6.30
2018-12-29T09:20:10.688Z,6.30
2018-12-29T09:25:06.404Z,6.20
2018-12-29T09:30:02.002Z,6.20
2018-12-29T09:34:57.524Z,6.30
2018-12-29T09:39:53.058Z,6.40
2018-12-29T09:44:48.566Z,6.50
2018-12-29T09:49:44.042Z,6.60
2018-12-29T09:54:39.615Z,6.70
2018-12-29T09:59:35.113Z,6.80
2018-12-29T10:04:30.611Z,6.80
2018-12-29T10:09:26.117Z,7.00
2018-12-29T10:14:21.601Z,7.00
2018-12-29T10:19:17.127Z,7.10
2018-12-29T10:24:12.639Z,7.20
2018-12-29T10:29:08.098Z,7.30
2018-12-29T10:34:03.602Z,7.40
2018-12-29T10:38:59.137Z,7.50
2018-12-29T10:43:54.666Z,7.60
2018-12-29T10:48:50.276Z,7.70
2018-12-29T10:53:45.741Z,7.80
2018-12-29T10:58:41.262Z,8.00
2018-12-29T11:03:36.728Z,8.10
2018-12-29T11:08:33.034Z,8.20
2018-12-29T11:13:28.558Z,8.20
2018-12-29T11:18:24.035Z,8.30
2018-12-29T11:23:19.562Z,8.30
2018-12-29T11:28:15.062Z,8.40
2018-12-29T11:33:10.683Z,8.40
2018-12-29T11:38:06.187Z,8.50
2018-12-29T11:43:01.693Z,8.50
2018-12-29T11:47:57.193Z,8.70
2018-12-29T11:52:52.720Z,8.70
2018-12-29T11:57:48.630Z,8.80
2018-12-29T12:02:44.292Z,8.90
2018-12-29T12:07:39.923Z,9.00
2018-12-29T12:12:35.474Z,9.00
2018-12-29T12:17:30.942Z,9.10
2018-12-29T12:22:26.438Z,9.10
2018-12-29T12:27:21.963Z,9.00
2018-12-29T12:32:17.860Z,8.90
2018-12-29T12:37:13.910Z,8.90
2018-12-29T12:42:10.044Z,8.80
2018-12-29T12:47:05.609Z,8.80
2018-12-29T12:52:01.127Z,8.90
2018-12-29T12:56:56.694Z,9.00
2018-12-29T13:01:52.476Z,9.00
2018-12-29T13:06:47.999Z,9.00
2018-12-29T13:11:43.547Z,9.00
2018-12-29T13:16:39.107Z,9.10
2018-12-29T13:21:34.574Z,9.10
2018-12-29T13:26:30.072Z,9.20
2018-12-29T13:31:25.623Z,9.10
2018-12-29T13:36:21.212Z,9.10
2018-12-29T13:41:16.789Z,9.10
2018-12-29T13:46:12.378Z,9.10
2018-12-29T13:51:07.879Z,9.10
2018-12-29T13:56:05.096Z,9.00
2018-12-29T14:01:00.783Z,8.90
2018-12-29T14:05:56.253Z,9.00
2018-12-29T14:10:51.820Z,8.90
2018-12-29T14:15:47.543Z,8.90
2018-12-29T14:20:43.175Z,8.80
2018-12-29T14:25:38.899Z,8.80
2018-12-29T14:30:34.413Z,8.80
2018-12-29T14:35:29.932Z,8.70
2018-12-29T14:40:25.446Z,8.70
2018-12-29T14:45:20.923Z,8.70
2018-12-29T14:50:16.695Z,8.70
2018-12-29T14:55:12.239Z,8.70
2018-12-29T15:00:07.940Z,8.70
2018-12-29T15:05:03.584Z,8.70
2018-12-29T15:09:59.063Z,8.70
2018-12-29T15:14:54.543Z,8.70
2018-12-29T15:19:50.107Z,8.70
2018-12-29T15:24:45.614Z,8.70
2018-12-29T15:29:41.166Z,8.70
2018-12-29T15:34:36.842Z,8.60
2018-12-29T15:39:32.321Z,8.60
2018-12-29T15:44:27.847Z,8.60
2018-12-29T15:49:23.711Z,8.60
2018-12-29T15:54:19.332Z,8.60
2018-12-29T15:59:14.902Z,8.60
2018-12-29T16:04:10.406Z,8.70
2018-12-29T16:09:08.253Z,8.70
2018-12-29T16:14:04.022Z,8.70
2018-12-29T16:19:00.168Z,8.70
2018-12-29T16:23:56.360Z,8.60
2018-12-29T16:28:51.908Z,8.60
2018-12-29T16:33:53.752Z,8.60
2018-12-29T16:38:44.894Z,8.50
2018-12-29T16:43:40.360Z,8.50
2018-12-29T16:48:35.910Z,8.40
2018-12-29T16:53:31.396Z,8.30
2018-12-29T16:58:26.921Z,8.30
2018-12-29T17:03:22.709Z,8.20
2018-12-29T17:08:18.246Z,8.10
2018-12-29T17:13:14.004Z,7.90
2018-12-29T17:18:09.567Z,7.90
2018-12-29T17:23:05.082Z,7.80
2018-12-29T17:28:00.812Z,7.80
2018-12-29T17:32:56.333Z,7.70
2018-12-29T17:37:52.178Z,7.70
2018-12-29T17:42:47.738Z,7.70
2018-12-29T17:47:43.210Z,7.70
2018-12-29T17:52:38.909Z,7.80
2018-12-29T17:57:34.777Z,7.80
2018-12-29T18:02:30.273Z,7.80
2018-12-29T18:07:25.765Z,7.80
2018-12-29T18:12:21.239Z,7.80
2018-12-29T18:17:16.924Z,7.80
2018-12-29T18:22:12.515Z,7.90
2018-12-29T18:27:07.991Z,7.90
2018-12-29T18:32:03.658Z,7.90
2018-12-29T18:36:59.527Z,8.00
2018-12-29T18:41:55.014Z,8.00
2018-12-29T18:46:50.486Z,8.00
2018-12-29T18:51:45.967Z,8.10
2018-12-29T18:56:45.486Z,8.10
2018-12-29T19:01:38.643Z,8.20
2018-12-29T19:06:34.167Z,8.20
2018-12-29T19:11:29.664Z,8.30
2018-12-29T19:16:25.171Z,8.30
2018-12-29T19:21:21.227Z,8.30
2018-12-29T19:26:17.184Z,8.30
2018-12-29T19:31:12.853Z,8.40
2018-12-29T19:36:08.437Z,8.40
2018-12-29T19:41:03.902Z,8.40
2018-12-29T19:45:59.899Z,8.40
2018-12-29T19:50:55.656Z,8.50
2018-12-29T19:55:51.495Z,8.50
2018-12-29T20:00:47.212Z,8.50
2018-12-29T20:05:43.430Z,8.60
2018-12-29T20:10:38.986Z,8.60
2018-12-29T20:15:34.751Z,8.60
2018-12-29T20:20:30.235Z,8.60
2018-12-29T20:25:25.717Z,8.60
2018-12-29T20:30:21.188Z,8.60
2018-12-29T20:35:16.723Z,8.70
2018-12-29T20:40:12.240Z,8.70
2018-12-29T20:45:07.974Z,8.80
2018-12-29T20:50:09.495Z,8.80
2018-12-29T20:55:01.179Z,8.90
2018-12-29T20:59:56.677Z,9.00
2018-12-29T21:04:52.216Z,9.00
2018-12-29T21:09:47.737Z,9.00
2018-12-29T21:14:43.318Z,9.10
2018-12-29T21:19:38.801Z,9.10
2018-12-29T21:24:34.383Z,9.10
2018-12-29T21:29:29.964Z,9.20
2018-12-29T21:34:25.496Z,9.20
2018-12-29T21:39:21.049Z,9.20
2018-12-29T21:44:16.602Z,9.20
2018-12-29T21:49:12.264Z,9.20
2018-12-29T21:54:07.792Z,9.20
2018-12-29T21:59:03.307Z,9.20
2018-12-29T22:03:58.805Z,9.20
2018-12-29T22:08:54.387Z,9.10
2018-12-29T22:13:49.882Z,9.10
2018-12-29T22:18:45.377Z,9.10
2018-12-29T22:23:40.882Z,9.00
2018-12-29T22:28:36.452Z,9.00
2018-12-29T22:33:32.000Z,8.90
2018-12-29T22:38:27.494Z,8.90
2018-12-29T22:43:22.963Z,8.80
2018-12-29T22:48:18.445Z,8.80
2018-12-29T22:53:14.179Z,8.80
2018-12-29T22:58:10.550Z,8.90
2018-12-29T23:03:06.059Z,8.90
2018-12-29T23:08:01.604Z,9.00
2018-12-29T23:12:57.096Z,9.00
2018-12-29T23:17:52.673Z,9.00
2018-12-29T23:22:48.166Z,9.00
2018-12-29T23:27:43.699Z,9.00
2018-12-29T23:32:39.270Z,9.00
2018-12-29T23:37:34.868Z,9.00
2018-12-29T23:42:30.686Z,9.00
2018-12-29T23:47:26.165Z,8.90
2018-12-29T23:52:21.659Z,8.90
2018-12-29T23:57:17.233Z,8.90
